Hooper Bay Airport Hooper Bay US
ICAO: PAHP
IATA:
Category: Medium
Scheduled Services:

Elevation: 13 ft
TransAlt. 18000 ft.

Airport Communications:
AWOS 3:135.1
CTAF:123
KENAI RDO:122.4
TWEB:115.2

PAHP Zoom In..

Runways:

(A) RW 13 length 3300 ft width 75 ft
---- / hdg 136

(B) RW 31 length 3300 ft width 75 ft
---- / hdg 316

Location; PAHP
Day. 22 / Time. 03.56 Zulu
* Altimeter: 30.33
* Temperature: -18° c. 0.4°f.
* Wind from: 360° Speed 11 kn.
Dewpoint: -21° c.
Visibility: 10 Statute Miles.
Clouds: Clear (automated report).

PAHP 220356Z AUTO 36011KT 10SM CLR M18/M21 A3033 RMK AO2 SLP309 T11831211 FZRANO


Wind From 360°
Speed 11 kn.

jpsM music video
CHECK IT OUT

jpsM - It Moves..

 
jpsmedia.com for Web Design  worldairports.se 2018   terms of use